createdAt,value
2019-01-21T00:02:04.310Z,51.20
2019-01-21T00:07:07.595Z,53.53
2019-01-21T00:12:12.951Z,54.27
2019-01-21T00:17:22.334Z,54.80
2019-01-21T00:22:22.756Z,54.90
2019-01-21T00:27:26.007Z,61.90
2019-01-21T00:32:29.435Z,49.97
2019-01-21T00:37:32.815Z,54.20
2019-01-21T00:42:36.297Z,51.53
2019-01-21T00:48:02.966Z,48.10
2019-01-21T00:53:08.904Z,41.27
2019-01-21T00:58:17.838Z,44.63
2019-01-21T01:03:41.350Z,46.07
2019-01-21T01:08:44.716Z,57.23
2019-01-21T01:13:48.131Z,54.17
2019-01-21T01:18:51.486Z,57.03
2019-01-21T01:23:57.190Z,62.47
2019-01-21T01:29:01.454Z,59.00
2019-01-21T01:34:04.739Z,64.33
2019-01-21T01:39:09.431Z,56.07
2019-01-21T01:44:13.051Z,53.83
2019-01-21T01:49:16.982Z,55.87
2019-01-21T01:54:26.690Z,57.40
2019-01-21T01:59:30.052Z,75.63
2019-01-21T02:04:33.428Z,59.13
2019-01-21T02:09:36.737Z,57.43
2019-01-21T02:14:39.512Z,62.37
2019-01-21T02:19:45.164Z,59.13
2019-01-21T02:24:51.626Z,57.87
2019-01-21T02:30:38.658Z,52.50
2019-01-21T02:36:12.176Z,53.73
2019-01-21T02:41:45.977Z,53.33
2019-01-21T02:47:25.461Z,56.53
2019-01-21T02:52:57.285Z,54.27
2019-01-21T02:58:57.074Z,58.17
2019-01-21T03:05:00.158Z,58.47
2019-01-21T03:10:34.525Z,48.93
2019-01-21T03:16:03.380Z,49.40
2019-01-21T03:21:42.889Z,52.20
2019-01-21T03:27:26.483Z,55.80
2019-01-21T03:33:23.236Z,45.73
2019-01-21T03:39:02.357Z,50.17
2019-01-21T03:44:31.064Z,47.87
2019-01-21T03:50:26.803Z,48.50
2019-01-21T03:55:33.252Z,48.57
2019-01-21T04:00:46.402Z,57.50
2019-01-21T04:06:02.105Z,50.10
2019-01-21T04:11:40.974Z,48.00
2019-01-21T04:17:25.797Z,52.77
2019-01-21T04:22:45.451Z,56.33
2019-01-21T04:28:35.692Z,56.50
2019-01-21T04:34:17.909Z,53.90
2019-01-21T04:39:50.785Z,56.03
2019-01-21T04:45:57.789Z,56.10
2019-01-21T04:52:00.077Z,56.33
2019-01-21T04:57:47.999Z,51.33
2019-01-21T05:03:31.527Z,51.00
2019-01-21T05:09:12.141Z,53.57
2019-01-21T05:14:52.148Z,48.43
2019-01-21T05:20:45.937Z,51.03
2019-01-21T05:26:18.027Z,50.40
2019-01-21T05:32:15.921Z,48.40
2019-01-21T05:37:47.283Z,47.87
2019-01-21T05:43:37.701Z,50.13
2019-01-21T05:49:34.979Z,45.90
2019-01-21T05:55:15.630Z,47.70
2019-01-21T06:01:31.979Z,45.93
2019-01-21T06:07:18.913Z,47.40
2019-01-21T06:12:56.938Z,50.00
2019-01-21T06:18:13.459Z,47.97
2019-01-21T06:24:02.851Z,44.13
2019-01-21T06:29:30.874Z,45.43
2019-01-21T06:34:54.950Z,47.83
2019-01-21T06:40:26.936Z,44.77
2019-01-21T06:46:03.410Z,41.00
2019-01-21T06:51:36.995Z,47.20
2019-01-21T06:57:35.223Z,48.60
2019-01-21T07:03:11.404Z,51.40
2019-01-21T07:08:51.988Z,48.40
2019-01-21T07:14:30.426Z,49.40
2019-01-21T07:20:22.375Z,45.10
2019-01-21T07:26:37.364Z,48.70
2019-01-21T07:32:01.975Z,44.60
2019-01-21T07:37:25.354Z,47.47
2019-01-21T07:43:04.359Z,45.90
2019-01-21T07:48:58.606Z,54.53
2019-01-21T07:54:41.491Z,49.67
2019-01-21T08:00:33.801Z,50.97
2019-01-21T08:06:12.541Z,52.27
2019-01-21T08:11:30.995Z,53.43
2019-01-21T08:17:21.011Z,48.67
2019-01-21T08:23:36.518Z,52.63
2019-01-21T08:29:23.147Z,47.07
2019-01-21T08:34:48.982Z,50.37
2019-01-21T08:40:30.485Z,44.63
2019-01-21T08:46:21.536Z,50.17
2019-01-21T08:52:03.842Z,48.50
2019-01-21T08:58:08.794Z,47.13
2019-01-21T09:03:53.405Z,44.83
2019-01-21T09:09:45.425Z,42.67
2019-01-21T09:15:32.258Z,42.20
2019-01-21T09:21:12.669Z,45.90
2019-01-21T09:27:08.991Z,42.03
2019-01-21T09:32:52.542Z,39.50
2019-01-21T09:38:27.190Z,43.53
2019-01-21T09:44:05.951Z,44.87
2019-01-21T09:49:25.584Z,43.27
2019-01-21T09:54:29.279Z,41.90
2019-01-21T09:59:35.731Z,44.07
2019-01-21T10:04:44.909Z,42.80
2019-01-21T10:10:28.592Z,42.23
2019-01-21T10:16:15.862Z,41.50
2019-01-21T10:21:49.086Z,39.90
2019-01-21T10:27:35.400Z,41.30
2019-01-21T10:33:25.412Z,39.50
2019-01-21T10:39:15.442Z,38.07
2019-01-21T10:44:44.078Z,37.40
2019-01-21T10:50:31.262Z,37.80
2019-01-21T10:56:10.920Z,40.33
2019-01-21T11:01:34.509Z,42.00
2019-01-21T11:07:02.728Z,49.27
2019-01-21T11:12:45.859Z,47.13
2019-01-21T11:18:33.185Z,48.57
2019-01-21T11:24:14.878Z,56.90
2019-01-21T11:30:06.333Z,49.53
2019-01-21T11:35:52.857Z,47.03
2019-01-21T11:41:36.726Z,44.73
2019-01-21T11:47:26.795Z,44.70
2019-01-21T11:53:32.706Z,42.67
2019-01-21T11:59:11.090Z,41.57
2019-01-21T12:04:54.900Z,36.13
2019-01-21T12:10:54.842Z,37.20
2019-01-21T12:16:41.872Z,33.40
2019-01-21T12:22:41.604Z,33.47
2019-01-21T12:28:25.777Z,37.10
2019-01-21T12:34:15.739Z,31.20
2019-01-21T12:39:58.942Z,32.13
2019-01-21T12:45:42.986Z,32.53
2019-01-21T12:51:23.883Z,34.00
2019-01-21T12:57:07.231Z,33.60
2019-01-21T13:02:24.737Z,31.80
2019-01-21T13:07:37.563Z,33.67
2019-01-21T13:13:40.478Z,32.33
2019-01-21T13:19:19.970Z,32.80
2019-01-21T13:25:23.007Z,32.20
2019-01-21T13:30:57.471Z,27.70
2019-01-21T13:36:29.690Z,31.07
2019-01-21T13:42:18.755Z,27.53
2019-01-21T13:48:07.248Z,32.80
2019-01-21T13:53:49.752Z,26.00
2019-01-21T13:59:43.272Z,25.53
2019-01-21T14:05:21.910Z,27.90
2019-01-21T14:11:08.845Z,27.93
2019-01-21T14:17:02.105Z,32.53
2019-01-21T14:22:23.240Z,30.43
2019-01-21T14:28:04.966Z,27.50
2019-01-21T14:34:02.752Z,29.67
2019-01-21T14:39:49.650Z,35.67
2019-01-21T14:45:41.334Z,29.13
2019-01-21T14:51:13.046Z,28.00
2019-01-21T14:56:32.315Z,27.53
2019-01-21T15:01:56.153Z,25.00
2019-01-21T15:07:24.633Z,28.10
2019-01-21T15:13:08.232Z,26.17
2019-01-21T15:18:39.013Z,26.90
2019-01-21T15:24:38.985Z,27.57
2019-01-21T15:30:08.568Z,26.80
2019-01-21T15:36:11.387Z,28.70
2019-01-21T15:41:54.347Z,28.27
2019-01-21T15:47:38.416Z,28.07
2019-01-21T15:53:03.168Z,26.37
2019-01-21T15:58:41.643Z,29.37
2019-01-21T16:04:38.476Z,31.40
2019-01-21T16:10:07.986Z,29.30
2019-01-21T16:15:39.065Z,28.80
2019-01-21T16:21:23.725Z,28.40
2019-01-21T16:26:49.165Z,28.60
2019-01-21T16:32:29.441Z,31.23
2019-01-21T16:38:02.560Z,31.80
2019-01-21T16:43:06.065Z,31.90
2019-01-21T16:48:11.704Z,29.27
2019-01-21T16:53:15.013Z,32.40
2019-01-21T16:58:18.463Z,33.40
2019-01-21T17:03:25.051Z,35.27
2019-01-21T17:08:31.162Z,32.70
2019-01-21T17:13:33.972Z,31.80
2019-01-21T17:18:37.237Z,31.00
2019-01-21T17:23:48.199Z,30.40
2019-01-21T17:28:51.212Z,32.00
2019-01-21T17:33:57.545Z,36.47
2019-01-21T17:39:00.426Z,28.67
2019-01-21T17:44:03.472Z,36.30
2019-01-21T17:49:06.282Z,32.07
2019-01-21T17:54:09.798Z,31.13
2019-01-21T17:59:16.042Z,33.17
2019-01-21T18:04:18.925Z,33.47
2019-01-21T18:09:21.775Z,31.67
2019-01-21T18:14:24.584Z,32.27
2019-01-21T18:19:27.449Z,33.00
2019-01-21T18:24:30.482Z,31.37
2019-01-21T18:29:33.962Z,35.00
2019-01-21T18:34:36.778Z,34.20
2019-01-21T18:39:39.664Z,36.63
2019-01-21T18:44:42.553Z,31.37
2019-01-21T18:49:45.393Z,32.53
2019-01-21T18:54:48.301Z,32.70
2019-01-21T18:59:54.276Z,34.30
2019-01-21T19:04:57.142Z,32.23
2019-01-21T19:09:59.952Z,36.97
2019-01-21T19:15:04.410Z,37.97
2019-01-21T19:20:11.137Z,39.00
2019-01-21T19:25:17.040Z,52.60
2019-01-21T19:30:22.257Z,46.47
2019-01-21T19:35:28.004Z,45.87
2019-01-21T19:40:34.014Z,45.23
2019-01-21T19:45:40.453Z,43.10
2019-01-21T19:50:43.670Z,47.13
2019-01-21T19:55:46.568Z,45.23
2019-01-21T20:00:52.910Z,42.33
2019-01-21T20:05:59.397Z,41.90
2019-01-21T20:11:04.346Z,44.47
2019-01-21T20:16:07.656Z,42.47
2019-01-21T20:21:11.116Z,49.57
2019-01-21T20:26:14.525Z,47.37
2019-01-21T20:31:25.318Z,42.13
2019-01-21T20:36:28.668Z,47.80
2019-01-21T20:41:31.530Z,44.90
2019-01-21T20:46:34.355Z,41.03
2019-01-21T20:51:37.220Z,43.50
2019-01-21T20:56:43.405Z,43.83
2019-01-21T21:01:48.830Z,41.70
2019-01-21T21:06:51.747Z,47.23
2019-01-21T21:11:55.083Z,44.90
2019-01-21T21:16:58.363Z,38.87
2019-01-21T21:22:04.394Z,39.63
2019-01-21T21:27:07.273Z,36.47
2019-01-21T21:32:10.570Z,34.10
2019-01-21T21:37:14.085Z,38.00
2019-01-21T21:42:16.990Z,36.63
2019-01-21T21:47:20.501Z,37.43
2019-01-21T21:52:27.785Z,38.23
2019-01-21T21:57:37.409Z,37.40
2019-01-21T22:02:40.743Z,37.07
2019-01-21T22:07:50.091Z,36.40
2019-01-21T22:12:52.981Z,35.60
2019-01-21T22:17:55.967Z,37.70
2019-01-21T22:22:58.857Z,37.97
2019-01-21T22:28:01.758Z,39.77
2019-01-21T22:33:04.701Z,39.03
2019-01-21T22:38:08.318Z,46.30
2019-01-21T22:43:11.603Z,46.00
2019-01-21T22:48:15.312Z,41.43
2019-01-21T22:53:18.631Z,44.57
2019-01-21T22:58:21.472Z,43.60
2019-01-21T23:03:30.774Z,42.30
2019-01-21T23:08:33.661Z,38.30
2019-01-21T23:13:39.599Z,44.23
2019-01-21T23:18:42.965Z,41.33
2019-01-21T23:23:46.399Z,40.90
2019-01-21T23:28:49.852Z,50.77
2019-01-21T23:33:53.618Z,48.23
2019-01-21T23:38:59.342Z,49.43
2019-01-21T23:44:02.196Z,45.07
2019-01-21T23:49:05.076Z,41.20
2019-01-21T23:54:08.251Z,50.73
2019-01-21T23:59:12.958Z,51.10
